Time;durP1;ratioP1;P1;durP2;ratioP2;P2;SDS_P1;SDS_P2;PMS_P1;PMS_P2;Temp;Humidity;BMP_temperature;BMP_pressure;BME280_temperature;BME280_humidity;BME280_pressure;Samples;Min_cycle;Max_cycle;Signal;HPM_P1;HPM_P2
2022/09/22 00:00:35;;;;;;;5.47;4.80;;;26.00;75.90;;;;;;5377031;23;20235;-96
2022/09/22 00:16:32;;;;;;;6.00;4.40;;;24.90;72.40;;;;;;4979898;28;20241;-96
2022/09/22 00:19:06;;;;;;;8.00;5.00;;;24.70;73.40;;;;;;4971520;28;20207;-96
2022/09/22 00:24:23;;;;;;;6.03;4.60;;;24.40;74.40;;;;;;5516462;23;20262;-95
2022/09/22 00:26:56;;;;;;;7.57;4.93;;;24.20;75.80;;;;;;4981891;28;20223;-94
2022/09/22 00:29:29;;;;;;;6.97;5.30;;;24.00;76.80;;;;;;4981520;28;20195;-94
2022/09/22 00:32:04;;;;;;;6.60;4.90;;;24.00;79.50;;;;;;4978832;28;20231;-94
2022/09/22 00:34:36;;;;;;;6.43;5.13;;;24.00;77.00;;;;;;4980943;28;20237;-94
2022/09/22 00:37:08;;;;;;;7.80;4.83;;;23.90;77.80;;;;;;4980959;28;20706;-94
2022/09/22 00:39:39;;;;;;;6.87;5.23;;;23.80;77.40;;;;;;4979321;28;20211;-95
2022/09/22 00:42:12;;;;;;;8.73;5.27;;;23.70;77.80;;;;;;4979215;28;20544;-95
2022/09/22 00:44:45;;;;;;;6.90;5.47;;;23.70;79.00;;;;;;4979644;28;20226;-93
2022/09/22 00:47:30;;;;;;;6.30;5.47;;;23.50;78.80;;;;;;4979510;28;20218;-94
2022/09/22 00:50:07;;;;;;;5.90;5.27;;;23.40;82.60;;;;;;4979321;28;20203;-95
2022/09/22 00:52:46;;;;;;;7.10;5.80;;;23.20;79.80;;;;;;4979430;28;20195;-94
2022/09/22 00:55:20;;;;;;;7.03;5.67;;;23.10;80.70;;;;;;4977997;28;20239;-94
2022/09/22 00:57:52;;;;;;;7.60;5.83;;;23.00;78.70;;;;;;4978292;28;20213;-95
2022/09/22 01:00:26;;;;;;;7.37;5.77;;;23.00;78.90;;;;;;4977332;28;20217;-93
2022/09/22 01:03:01;;;;;;;6.57;5.87;;;22.90;76.60;;;;;;4978075;28;20254;-95
2022/09/22 01:05:34;;;;;;;9.13;5.67;;;22.80;80.80;;;;;;4978938;28;20546;-94
2022/09/22 01:08:06;;;;;;;8.57;6.20;;;22.70;79.60;;;;;;4978150;28;20219;-95
2022/09/22 01:10:38;;;;;;;7.43;5.67;;;22.70;80.50;;;;;;4978161;28;20211;-93
2022/09/22 01:13:23;;;;;;;8.40;6.13;;;22.60;78.10;;;;;;4977708;28;20218;-95
2022/09/22 01:16:06;;;;;;;8.37;6.00;;;22.60;81.90;;;;;;4978920;28;20241;-94
2022/09/22 01:18:50;;;;;;;8.57;6.20;;;22.50;78.20;;;;;;4978965;28;20218;-94
2022/09/22 01:21:33;;;;;;;7.17;6.17;;;22.50;80.00;;;;;;4977501;28;20245;-93
2022/09/22 01:24:43;;;;;;;7.90;5.60;;;22.30;80.50;;;;;;4977627;28;20214;-93
2022/09/22 01:27:40;;;;;;;7.90;6.20;;;22.20;83.60;;;;;;4977826;28;20221;-93
2022/09/22 01:30:24;;;;;;;8.90;6.83;;;22.00;83.70;;;;;;4976362;28;20602;-94
2022/09/22 01:33:11;;;;;;;9.70;6.07;;;22.00;85.40;;;;;;4978575;28;20574;-94
2022/09/22 01:35:51;;;;;;;9.43;5.70;;;21.70;85.90;;;;;;4978476;28;20738;-94
2022/09/22 01:38:33;;;;;;;6.97;6.00;;;21.60;86.50;;;;;;4978272;28;20202;-94
2022/09/22 01:41:07;;;;;;;7.97;6.03;;;21.40;85.20;;;;;;4978139;28;20203;-93
2022/09/22 01:43:46;;;;;;;7.70;5.93;;;21.30;87.20;;;;;;4977646;28;20214;-94
2022/09/22 01:46:24;;;;;;;9.27;6.37;;;21.10;88.90;;;;;;4982542;28;20233;-93
2022/09/22 01:48:58;;;;;;;11.87;8.10;;;21.00;89.70;;;;;;4981811;28;20268;-94
2022/09/22 01:51:32;;;;;;;9.37;6.97;;;20.90;87.70;;;;;;4976499;28;20206;-94
2022/09/22 01:54:08;;;;;;;10.17;7.03;;;20.70;89.70;;;;;;4977771;28;20660;-94
2022/09/22 01:56:43;;;;;;;9.60;6.50;;;20.70;89.40;;;;;;4978546;28;20241;-95
2022/09/22 01:59:17;;;;;;;9.37;6.70;;;20.60;89.60;;;;;;4976794;28;20203;-94
2022/09/22 02:01:58;;;;;;;8.10;6.00;;;20.40;90.00;;;;;;4978804;28;20214;-95
2022/09/22 02:04:36;;;;;;;11.53;6.57;;;20.20;90.10;;;;;;4978690;28;20213;-94
2022/09/22 02:07:10;;;;;;;6.87;6.17;;;20.10;90.90;;;;;;4980524;28;20213;-94
2022/09/22 02:09:47;;;;;;;7.93;6.20;;;19.90;90.30;;;;;;4978366;28;20210;-94
2022/09/22 02:12:18;;;;;;;10.33;6.97;;;19.80;90.10;;;;;;4976693;28;20225;-95
2022/09/22 02:14:51;;;;;;;9.27;6.57;;;19.70;90.40;;;;;;4979713;28;20648;-93
2022/09/22 02:17:25;;;;;;;11.33;6.50;;;19.60;90.40;;;;;;4977494;28;20203;-94
2022/09/22 02:20:05;;;;;;;10.00;6.47;;;19.50;90.40;;;;;;4980981;28;20275;-94
2022/09/22 02:22:37;;;;;;;8.90;6.23;;;19.40;91.00;;;;;;4977568;28;20725;-94
2022/09/22 02:25:11;;;;;;;9.87;6.40;;;19.30;90.90;;;;;;4978060;28;20223;-94
2022/09/22 02:27:43;;;;;;;7.30;5.90;;;19.20;91.50;;;;;;4983648;28;20275;-94
2022/09/22 02:30:16;;;;;;;8.63;6.40;;;19.20;90.00;;;;;;4978121;28;20207;-94
2022/09/22 02:32:52;;;;;;;10.10;6.10;;;19.10;91.10;;;;;;4976735;28;20207;-94
2022/09/22 02:35:26;;;;;;;16.17;6.80;;;19.00;90.90;;;;;;4976843;28;20260;-93
2022/09/22 02:38:08;;;;;;;8.67;5.63;;;19.00;91.00;;;;;;4977454;28;20274;-93
2022/09/22 02:40:45;;;;;;;12.10;5.93;;;18.90;90.80;;;;;;4977062;28;20420;-94
2022/09/22 02:43:24;;;;;;;10.80;6.33;;;18.80;90.50;;;;;;4976651;28;20218;-94
2022/09/22 02:46:00;;;;;;;12.83;6.57;;;18.70;90.90;;;;;;4977171;28;20213;-95
2022/09/22 02:48:38;;;;;;;10.00;6.60;;;18.70;91.30;;;;;;4977238;28;20210;-90
2022/09/22 02:51:09;;;;;;;9.17;6.17;;;18.60;91.40;;;;;;4976697;28;20218;-94
2022/09/22 02:53:41;;;;;;;9.43;6.53;;;18.50;92.20;;;;;;4977869;28;20222;-94
2022/09/22 02:56:14;;;;;;;6.83;6.00;;;18.40;91.00;;;;;;4980483;28;20330;-94
2022/09/22 02:58:45;;;;;;;8.70;5.90;;;18.30;91.90;;;;;;4981779;28;20215;-94
2022/09/22 03:01:17;;;;;;;8.80;6.27;;;18.30;92.30;;;;;;4983937;28;20219;-95
2022/09/22 03:03:50;;;;;;;8.27;6.17;;;18.20;92.60;;;;;;4993384;28;20228;-94
2022/09/22 03:06:22;;;;;;;6.60;5.90;;;18.10;92.10;;;;;;4995125;28;20224;-96
2022/09/22 03:08:53;;;;;;;10.73;6.43;;;18.00;92.60;;;;;;4989967;28;20211;-96
2022/09/22 03:11:27;;;;;;;9.37;6.33;;;17.80;92.90;;;;;;4981445;28;20207;-96
2022/09/22 03:14:00;;;;;;;13.63;6.30;;;17.80;93.10;;;;;;4985173;28;20277;-95
2022/09/22 03:16:32;;;;;;;9.87;6.50;;;17.70;93.40;;;;;;4970211;28;20299;-95
2022/09/22 03:19:05;;;;;;;8.37;6.37;;;17.60;92.80;;;;;;4966939;28;20229;-94
2022/09/22 03:21:36;;;;;;;11.10;6.53;;;17.60;92.60;;;;;;4978346;28;20219;-95
2022/09/22 03:24:07;;;;;;;11.47;6.20;;;17.50;92.50;;;;;;4975880;28;20620;-94
2022/09/22 03:26:39;;;;;;;11.27;6.20;;;17.50;93.00;;;;;;4959534;28;20774;-95
2022/09/22 03:29:11;;;;;;;9.33;5.37;;;17.50;92.40;;;;;;4971758;28;20241;-95
2022/09/22 03:31:45;;;;;;;9.90;5.90;;;17.40;92.50;;;;;;4976349;28;20207;-95
2022/09/22 03:34:18;;;;;;;9.87;5.80;;;17.30;93.20;;;;;;4979842;28;20206;-95
2022/09/22 03:36:50;;;;;;;8.03;5.70;;;17.30;93.50;;;;;;4973907;28;20243;-93
2022/09/22 03:39:24;;;;;;;11.97;6.40;;;17.20;93.50;;;;;;4965460;28;20233;-96
2022/09/22 03:41:58;;;;;;;9.90;6.07;;;17.20;93.70;;;;;;4967695;28;20252;-94
2022/09/22 03:44:29;;;;;;;10.17;5.93;;;17.10;94.00;;;;;;4971254;28;20214;-95
2022/09/22 03:47:02;;;;;;;7.97;5.77;;;17.00;94.30;;;;;;4975586;28;20217;-95
2022/09/22 03:49:35;;;;;;;9.47;6.53;;;16.90;94.40;;;;;;4974079;28;20296;-95
2022/09/22 03:52:07;;;;;;;11.40;7.23;;;16.80;94.60;;;;;;4975922;28;20786;-95
2022/09/22 03:54:38;;;;;;;10.00;6.97;;;16.80;94.60;;;;;;4977212;28;20261;-95
2022/09/22 03:57:09;;;;;;;11.00;6.87;;;16.70;94.80;;;;;;4976507;28;20246;-95
2022/09/22 03:59:40;;;;;;;8.30;6.23;;;16.70;94.90;;;;;;4965279;28;20297;-94
2022/09/22 04:02:12;;;;;;;9.37;6.53;;;16.60;95.00;;;;;;4957248;28;20215;-95
2022/09/22 04:04:46;;;;;;;9.17;6.67;;;16.60;95.10;;;;;;4969756;28;20218;-95
2022/09/22 04:07:18;;;;;;;13.20;6.40;;;16.60;95.40;;;;;;4978774;28;20208;-96
2022/09/22 04:09:49;;;;;;;7.90;6.03;;;16.60;95.60;;;;;;4991310;28;20207;-96
2022/09/22 04:12:21;;;;;;;7.73;5.80;;;16.50;95.80;;;;;;4992739;28;20189;-95
2022/09/22 04:14:55;;;;;;;7.80;6.17;;;16.50;96.20;;;;;;4996199;28;20263;-94
2022/09/22 04:17:28;;;;;;;7.53;6.17;;;16.40;96.10;;;;;;4996433;28;20289;-95
2022/09/22 04:20:02;;;;;;;9.63;7.00;;;16.40;96.40;;;;;;4978680;28;20215;-95
2022/09/22 04:22:33;;;;;;;8.73;6.07;;;16.40;96.50;;;;;;4974966;28;20210;-96
2022/09/22 04:25:05;;;;;;;9.97;6.30;;;16.40;96.60;;;;;;4976531;28;20262;-95
2022/09/22 04:27:36;;;;;;;6.33;5.27;;;16.30;96.80;;;;;;4975831;28;20207;-96
2022/09/22 04:30:09;;;;;;;7.10;5.90;;;16.30;96.90;;;;;;4975416;28;20211;-95
2022/09/22 04:32:40;;;;;;;7.77;5.90;;;16.20;96.90;;;;;;4971066;28;20214;-95
2022/09/22 04:35:13;;;;;;;10.07;5.67;;;16.10;96.90;;;;;;4955454;28;20215;-95
2022/09/22 04:37:45;;;;;;;7.37;5.87;;;16.10;97.40;;;;;;4976083;28;20234;-95
2022/09/22 04:40:17;;;;;;;8.73;5.90;;;16.00;97.70;;;;;;4973259;28;20218;-96
2022/09/22 04:42:48;;;;;;;8.57;5.87;;;16.00;97.70;;;;;;4958476;28;20730;-95
2022/09/22 04:45:20;;;;;;;8.20;6.03;;;15.90;97.70;;;;;;4971598;28;20876;-96
2022/09/22 04:47:53;;;;;;;10.63;6.40;;;15.90;97.70;;;;;;4963450;28;21067;-96
2022/09/22 04:50:27;;;;;;;10.80;5.53;;;15.80;97.80;;;;;;4978989;28;20302;-96
2022/09/22 04:52:58;;;;;;;7.13;5.70;;;15.80;98.00;;;;;;4976084;28;20732;-96
2022/09/22 04:55:29;;;;;;;9.33;6.00;;;15.80;98.20;;;;;;4982091;28;20207;-96
2022/09/22 04:58:00;;;;;;;12.80;6.30;;;15.70;98.10;;;;;;4991255;28;20253;-96
2022/09/22 05:00:32;;;;;;;7.97;5.73;;;15.70;98.10;;;;;;4987106;28;20222;-96
2022/09/22 05:03:09;;;;;;;8.73;5.90;;;15.60;98.50;;;;;;4967683;28;20204;-96
2022/09/22 05:05:42;;;;;;;7.20;5.57;;;15.60;98.00;;;;;;4968322;28;20215;-96
2022/09/22 05:08:15;;;;;;;7.27;5.37;;;15.60;98.20;;;;;;4972304;28;20203;-95
2022/09/22 05:10:46;;;;;;;9.17;6.33;;;15.60;98.10;;;;;;4981120;28;20670;-96
2022/09/22 05:13:18;;;;;;;12.80;6.40;;;15.60;98.20;;;;;;4985395;28;20218;-96
2022/09/22 05:15:50;;;;;;;9.03;6.30;;;15.50;98.50;;;;;;4988614;28;20202;-96
2022/09/22 05:18:21;;;;;;;8.97;5.73;;;15.50;98.70;;;;;;4984545;28;20258;-96
2022/09/22 05:20:55;;;;;;;7.57;6.00;;;15.50;98.90;;;;;;4985012;28;20207;-96
2022/09/22 05:23:27;;;;;;;7.07;5.80;;;15.50;98.90;;;;;;4983967;28;20776;-96
2022/09/22 05:25:58;;;;;;;13.03;6.27;;;15.40;99.20;;;;;;4982152;28;20215;-96
2022/09/22 05:28:30;;;;;;;8.30;6.27;;;15.40;99.80;;;;;;4983026;28;20207;-96
2022/09/22 05:31:01;;;;;;;8.63;6.87;;;15.30;99.90;;;;;;4980283;28;20219;-96
2022/09/22 05:33:33;;;;;;;9.17;6.27;;;15.30;99.90;;;;;;4972611;28;20216;-95
2022/09/22 05:36:07;;;;;;;11.90;6.03;;;15.20;99.90;;;;;;4977170;28;20221;-95
2022/09/22 05:38:38;;;;;;;7.97;6.30;;;15.20;99.90;;;;;;4977662;28;20721;-94
2022/09/22 05:41:12;;;;;;;9.07;6.37;;;15.20;99.90;;;;;;4980392;28;20241;-94
2022/09/22 05:43:44;;;;;;;9.77;6.57;;;15.30;99.90;;;;;;4977436;28;20211;-93
2022/09/22 05:46:14;;;;;;;9.30;6.50;;;15.30;99.90;;;;;;4977457;28;20683;-95
2022/09/22 05:48:47;;;;;;;8.90;6.83;;;15.40;99.90;;;;;;4970014;28;20212;-96
2022/09/22 05:51:21;;;;;;;12.47;6.67;;;15.30;99.90;;;;;;4970552;28;20203;-96
2022/09/22 05:53:53;;;;;;;7.23;6.20;;;15.30;99.90;;;;;;4958361;28;20223;-95
2022/09/22 05:56:25;;;;;;;10.13;6.17;;;15.20;99.90;;;;;;4961664;28;20215;-95
2022/09/22 05:58:56;;;;;;;9.50;6.13;;;15.20;99.90;;;;;;4976635;28;20238;-95
2022/09/22 06:01:28;;;;;;;7.30;6.10;;;15.10;99.90;;;;;;4969870;28;20294;-95
2022/09/22 06:03:59;;;;;;;9.63;6.53;;;15.10;99.90;;;;;;4961282;28;20262;-96
2022/09/22 06:06:33;;;;;;;6.80;5.93;;;15.10;99.90;;;;;;4975786;28;20207;-96
2022/09/22 06:09:04;;;;;;;9.63;6.23;;;15.00;99.90;;;;;;4979226;28;20215;-96
2022/09/22 06:11:36;;;;;;;8.10;6.03;;;14.90;99.90;;;;;;4976782;28;20207;-96
2022/09/22 06:14:07;;;;;;;9.60;6.23;;;14.80;99.90;;;;;;4978225;28;20217;-96
2022/09/22 06:16:38;;;;;;;9.67;6.20;;;14.80;99.90;;;;;;4977018;28;20219;-96
2022/09/22 06:19:10;;;;;;;9.37;6.87;;;14.70;99.90;;;;;;4966496;28;20238;-96
2022/09/22 06:21:44;;;;;;;11.87;7.00;;;15.30;99.90;;;;;;4973124;28;20199;-95
2022/09/22 06:24:16;;;;;;;12.33;7.17;;;15.30;99.90;;;;;;4976830;28;20203;-95
2022/09/22 06:26:47;;;;;;;11.03;7.37;;;15.50;99.90;;;;;;4973366;28;20203;-96
2022/09/22 06:29:18;;;;;;;12.77;7.40;;;15.70;99.90;;;;;;4975780;28;20199;-94
2022/09/22 06:31:50;;;;;;;9.53;7.33;;;15.90;99.90;;;;;;4970631;28;20222;-95
2022/09/22 06:34:22;;;;;;;10.00;7.50;;;16.10;99.90;;;;;;4953074;28;20231;-96
2022/09/22 06:36:58;;;;;;;9.40;6.73;;;16.10;99.90;;;;;;4959822;28;20204;-96
2022/09/22 06:39:29;;;;;;;11.03;6.10;;;16.10;99.90;;;;;;4960528;28;20602;-96
2022/09/22 06:42:02;;;;;;;7.27;5.63;;;16.00;99.90;;;;;;4979184;28;20207;-94
2022/09/22 06:44:34;;;;;;;8.33;6.20;;;16.00;99.90;;;;;;4998176;28;20202;-94
2022/09/22 06:47:07;;;;;;;9.00;6.07;;;16.00;99.90;;;;;;4995324;28;20230;-95
2022/09/22 06:49:38;;;;;;;8.07;5.43;;;16.00;99.90;;;;;;4993600;28;20222;-95
2022/09/22 06:52:15;;;;;;;8.80;5.17;;;16.00;99.90;;;;;;4959417;28;20216;-94
2022/09/22 06:54:49;;;;;;;7.60;5.60;;;15.90;99.90;;;;;;4976434;28;20245;-93
2022/09/22 06:57:31;;;;;;;7.40;4.93;;;15.80;99.90;;;;;;4976867;28;20219;-93
2022/09/22 07:00:05;;;;;;;5.73;4.93;;;15.80;99.90;;;;;;4975349;28;20206;-95
2022/09/22 07:02:38;;;;;;;7.10;5.13;;;15.60;99.90;;;;;;4976047;28;20683;-94
2022/09/22 07:05:10;;;;;;;6.27;4.33;;;15.60;99.90;;;;;;4976194;28;20211;-94
2022/09/22 07:07:43;;;;;;;6.77;4.27;;;15.50;99.90;;;;;;4976560;28;20226;-93
2022/09/22 07:10:15;;;;;;;7.40;4.40;;;15.40;99.90;;;;;;4976377;28;20207;-95
2022/09/22 07:12:49;;;;;;;6.33;4.60;;;15.40;99.90;;;;;;4975964;28;20219;-95
2022/09/22 07:15:20;;;;;;;5.80;4.10;;;15.30;99.90;;;;;;4976663;28;20243;-94
2022/09/22 07:17:54;;;;;;;5.40;4.53;;;15.20;99.90;;;;;;4976708;28;20266;-94
2022/09/22 07:20:27;;;;;;;4.63;3.90;;;15.20;99.90;;;;;;4981282;28;20215;-95
2022/09/22 07:23:12;;;;;;;5.47;3.90;;;15.10;99.90;;;;;;4986559;28;20206;-94
2022/09/22 07:25:46;;;;;;;4.43;3.63;;;15.10;99.90;;;;;;4985778;28;20290;-95
2022/09/22 07:28:17;;;;;;;5.20;3.87;;;15.00;99.90;;;;;;4978112;28;20234;-94
2022/09/22 07:30:48;;;;;;;8.00;4.27;;;14.90;99.90;;;;;;4976487;28;20230;-94
2022/09/22 07:33:20;;;;;;;7.03;3.87;;;14.80;99.90;;;;;;4969832;28;20222;-95
2022/09/22 07:36:00;;;;;;;5.43;3.67;;;14.80;99.90;;;;;;4978814;28;20215;-96
2022/09/22 07:38:35;;;;;;;5.80;3.03;;;14.70;99.90;;;;;;4976655;28;20241;-95
2022/09/22 07:41:09;;;;;;;5.57;3.80;;;14.70;99.90;;;;;;4976009;28;20212;-93
2022/09/22 07:43:41;;;;;;;5.27;3.90;;;14.60;99.90;;;;;;4975481;28;20218;-95
2022/09/22 07:46:14;;;;;;;4.60;3.60;;;14.60;99.90;;;;;;4976373;28;20203;-94
2022/09/22 07:48:46;;;;;;;4.77;3.43;;;14.50;99.90;;;;;;4975533;28;20660;-95
2022/09/22 07:51:21;;;;;;;4.57;3.63;;;14.50;99.90;;;;;;4975625;28;20207;-95
2022/09/22 07:54:06;;;;;;;4.20;3.80;;;14.40;99.90;;;;;;4993887;28;20209;-96
2022/09/22 07:56:39;;;;;;;7.17;3.63;;;14.40;99.90;;;;;;4993041;28;20214;-95
2022/09/22 07:59:12;;;;;;;4.27;3.60;;;14.30;99.90;;;;;;4976051;28;20265;-95
2022/09/22 08:01:46;;;;;;;4.50;3.80;;;14.20;99.90;;;;;;4974882;28;20321;-94
2022/09/22 08:04:21;;;;;;;5.23;4.00;;;14.20;99.90;;;;;;4966202;28;20284;-96
2022/09/22 08:06:54;;;;;;;4.83;3.97;;;14.10;99.90;;;;;;4959269;28;20207;-94
2022/09/22 08:09:30;;;;;;;4.70;3.97;;;14.00;99.90;;;;;;4959236;28;20214;-95
2022/09/22 08:12:02;;;;;;;5.73;4.20;;;14.00;99.90;;;;;;4961643;28;20217;-94
2022/09/22 08:14:33;;;;;;;4.97;3.57;;;13.90;99.90;;;;;;4964346;28;20234;-95
2022/09/22 08:17:11;;;;;;;4.37;3.70;;;13.80;99.90;;;;;;4982958;28;20222;-96
2022/09/22 08:19:42;;;;;;;8.23;4.30;;;13.80;99.90;;;;;;4990214;28;20228;-95
2022/09/22 08:22:13;;;;;;;8.70;4.07;;;13.70;99.90;;;;;;4998335;28;20226;-95
2022/09/22 08:24:48;;;;;;;5.47;3.80;;;13.70;99.90;;;;;;4996042;28;20226;-96
2022/09/22 08:27:19;;;;;;;6.03;4.10;;;13.60;99.90;;;;;;4989882;28;20670;-95
2022/09/22 08:29:50;;;;;;;5.50;4.03;;;13.60;99.90;;;;;;4984368;28;20215;-95
2022/09/22 08:32:23;;;;;;;5.77;4.33;;;13.60;99.90;;;;;;4982910;28;20213;-95
2022/09/22 08:34:57;;;;;;;5.37;4.37;;;13.60;99.90;;;;;;4980381;28;20285;-95
2022/09/22 08:37:31;;;;;;;7.13;4.10;;;13.50;99.90;;;;;;4980909;28;20212;-96
2022/09/22 08:40:05;;;;;;;4.63;3.90;;;13.50;99.90;;;;;;4980502;28;20238;-96
2022/09/22 08:42:37;;;;;;;6.13;4.30;;;13.50;99.90;;;;;;4978440;28;20274;-96
2022/09/22 08:45:16;;;;;;;5.57;4.30;;;13.40;99.90;;;;;;4979086;28;20211;-94
2022/09/22 08:53:46;;;;;;;9.70;5.00;;;13.20;99.90;;;;;;4978769;28;20215;-95
2022/09/22 08:56:29;;;;;;;8.87;4.50;;;13.20;99.90;;;;;;4979383;28;20213;-95
2022/09/22 08:59:08;;;;;;;5.30;4.63;;;13.10;99.90;;;;;;4979229;28;20576;-94
2022/09/22 09:01:59;;;;;;;4.87;4.47;;;13.10;99.90;;;;;;4978583;28;20210;-94
2022/09/22 09:04:51;;;;;;;7.00;4.53;;;13.20;99.90;;;;;;4966719;28;20211;-94
2022/09/22 09:07:34;;;;;;;7.93;4.83;;;13.10;99.90;;;;;;4959221;28;20204;-95
2022/09/22 09:10:14;;;;;;;5.27;4.60;;;13.10;99.90;;;;;;4959569;28;20216;-95
2022/09/22 09:13:03;;;;;;;9.87;4.40;;;13.10;99.90;;;;;;4958511;29;20215;-94
2022/09/22 09:15:46;;;;;;;6.87;4.33;;;13.10;99.90;;;;;;4961256;28;20620;-95
2022/09/22 09:18:20;;;;;;;5.80;5.03;;;13.10;99.90;;;;;;4974037;28;20279;-95
2022/09/22 09:20:54;;;;;;;5.83;4.80;;;13.10;99.90;;;;;;4978589;28;20213;-95
2022/09/22 09:23:30;;;;;;;7.97;5.30;;;13.10;99.90;;;;;;4978498;28;20219;-96
2022/09/22 09:26:23;;;;;;;8.83;5.17;;;13.00;99.90;;;;;;4981939;28;20207;-96
2022/09/22 09:28:59;;;;;;;7.93;5.60;;;13.00;99.90;;;;;;4999563;28;20218;-96
2022/09/22 09:31:40;;;;;;;6.10;5.17;;;13.10;99.90;;;;;;4999097;28;20274;-96
2022/09/22 09:34:16;;;;;;;9.03;5.13;;;13.10;99.90;;;;;;4999845;28;20214;-95
2022/09/22 09:36:51;;;;;;;8.00;5.13;;;13.00;99.90;;;;;;4999956;28;20190;-95
2022/09/22 09:39:30;;;;;;;9.33;5.93;;;13.00;99.90;;;;;;4999343;28;20218;-95
2022/09/22 09:42:03;;;;;;;6.43;4.97;;;13.10;99.90;;;;;;4997568;28;20217;-95
2022/09/22 09:44:39;;;;;;;8.70;5.57;;;13.10;99.90;;;;;;4991979;28;20263;-95
2022/09/22 09:47:18;;;;;;;8.53;5.80;;;13.10;99.90;;;;;;4999568;28;20206;-94
2022/09/22 09:49:53;;;;;;;8.40;5.23;;;13.10;99.90;;;;;;4999439;28;20207;-94
2022/09/22 09:52:28;;;;;;;8.50;4.90;;;13.20;99.90;;;;;;4990712;28;20213;-94
2022/09/22 09:55:02;;;;;;;9.03;5.50;;;13.20;99.90;;;;;;4986427;28;20211;-93
2022/09/22 09:57:34;;;;;;;7.10;5.70;;;13.20;99.90;;;;;;4993799;28;20210;-94
2022/09/22 10:00:30;;;;;;;10.07;5.33;;;13.20;99.90;;;;;;4985435;28;20226;-94
2022/09/22 10:03:16;;;;;;;7.83;5.40;;;13.10;99.90;;;;;;4985716;28;20195;-93
2022/09/22 10:06:01;;;;;;;8.47;5.50;;;13.10;99.90;;;;;;4967129;28;20223;-95
2022/09/22 10:08:35;;;;;;;8.07;5.53;;;13.10;99.90;;;;;;4961553;29;20591;-96
2022/09/22 10:11:08;;;;;;;8.60;5.67;;;13.20;99.90;;;;;;4958684;28;20226;-95
2022/09/22 10:13:41;;;;;;;7.73;5.87;;;13.20;99.90;;;;;;4958517;29;20295;-96
2022/09/22 10:16:25;;;;;;;8.47;5.60;;;13.20;99.90;;;;;;4965674;28;20217;-96
2022/09/22 10:19:20;;;;;;;8.40;5.77;;;13.20;99.90;;;;;;4979712;28;20203;-95
2022/09/22 10:21:51;;;;;;;9.67;6.60;;;13.30;99.90;;;;;;4975937;28;20576;-94
2022/09/22 10:24:34;;;;;;;10.03;6.20;;;13.30;99.90;;;;;;4977022;28;20258;-96
2022/09/22 10:27:05;;;;;;;7.40;6.00;;;13.30;99.90;;;;;;4978011;28;20205;-96
2022/09/22 10:29:41;;;;;;;7.33;5.40;;;13.20;99.90;;;;;;4977226;28;20214;-96
2022/09/22 10:32:26;;;;;;;9.87;6.17;;;13.30;99.90;;;;;;4978184;28;20207;-96
2022/09/22 10:34:58;;;;;;;7.87;5.60;;;13.40;99.90;;;;;;4956075;28;20295;-95
2022/09/22 10:37:31;;;;;;;9.50;5.40;;;13.40;99.90;;;;;;4957855;28;20208;-96
2022/09/22 10:40:04;;;;;;;7.80;5.40;;;13.50;99.90;;;;;;4957725;28;20944;-96
2022/09/22 10:42:42;;;;;;;7.77;5.80;;;13.50;99.90;;;;;;4957300;28;20278;-96
2022/09/22 10:45:15;;;;;;;8.43;5.30;;;13.50;99.90;;;;;;4957799;28;20205;-95
2022/09/22 10:47:59;;;;;;;9.30;5.13;;;13.50;99.90;;;;;;4969068;28;20207;-96
2022/09/22 10:50:56;;;;;;;6.73;5.47;;;13.50;99.90;;;;;;4975957;28;20539;-96
2022/09/22 10:53:56;;;;;;;6.60;4.60;;;13.50;99.90;;;;;;4975969;28;20207;-96
2022/09/22 10:56:34;;;;;;;7.00;4.83;;;13.60;99.90;;;;;;4976856;28;20226;-95
2022/09/22 10:59:27;;;;;;;6.90;5.10;;;13.60;99.90;;;;;;4976475;28;20214;-95
2022/09/22 11:02:44;;;;;;;7.60;4.57;;;13.60;99.90;;;;;;4967708;28;20203;-94
2022/09/22 11:14:43;;;;;;;6.20;4.90;;;13.80;99.90;;;;;;4956536;28;20207;-95
2022/09/22 11:17:24;;;;;;;6.50;4.40;;;13.80;99.90;;;;;;4946272;29;20208;-95
2022/09/22 11:20:18;;;;;;;6.60;4.83;;;13.80;99.90;;;;;;4961053;28;20239;-93
2022/09/22 11:23:15;;;;;;;6.60;4.43;;;13.80;99.90;;;;;;4959698;28;20299;-94
2022/09/22 11:25:57;;;;;;;6.07;4.60;;;13.80;99.90;;;;;;4956747;28;20557;-95
2022/09/22 11:28:43;;;;;;;7.37;5.00;;;13.80;99.90;;;;;;4959200;28;20215;-94
2022/09/22 11:31:28;;;;;;;5.10;4.50;;;13.80;99.90;;;;;;4960722;28;20219;-94
2022/09/22 11:34:36;;;;;;;7.40;4.53;;;13.80;99.90;;;;;;4958883;29;20643;-94
2022/09/22 11:37:26;;;;;;;7.37;4.90;;;13.70;99.90;;;;;;4962172;28;20215;-96
2022/09/22 11:40:19;;;;;;;5.93;4.37;;;13.70;99.90;;;;;;4959483;28;20231;-96
2022/09/22 11:43:00;;;;;;;5.43;4.47;;;13.60;99.90;;;;;;4957088;28;20256;-96
2022/09/22 11:45:45;;;;;;;6.53;4.50;;;13.60;99.90;;;;;;4960752;28;20207;-96
2022/09/22 11:48:29;;;;;;;5.90;4.40;;;13.50;99.90;;;;;;4961195;29;20196;-94
2022/09/22 11:51:13;;;;;;;5.97;4.70;;;13.60;99.90;;;;;;4963777;28;20302;-96
2022/09/22 11:54:06;;;;;;;9.57;5.00;;;13.60;99.90;;;;;;4966328;28;20207;-96
2022/09/22 11:56:44;;;;;;;9.13;5.10;;;13.50;99.90;;;;;;4969842;28;20234;-95
2022/09/22 11:59:27;;;;;;;6.93;4.43;;;13.60;99.90;;;;;;4982297;28;20667;-96
2022/09/22 12:02:04;;;;;;;6.63;4.93;;;13.60;99.90;;;;;;4982081;28;20254;-96
2022/09/22 12:04:40;;;;;;;7.77;4.50;;;13.60;99.90;;;;;;4969169;28;20254;-96
2022/09/22 12:07:18;;;;;;;7.43;4.83;;;13.60;99.90;;;;;;4960332;28;20211;-96
2022/09/22 12:09:53;;;;;;;7.37;4.77;;;13.60;99.90;;;;;;4959320;29;20222;-94
2022/09/22 12:12:28;;;;;;;6.30;4.93;;;13.70;99.90;;;;;;4966222;28;20291;-95
2022/09/22 12:15:07;;;;;;;7.07;4.20;;;13.70;99.90;;;;;;4974928;28;20217;-95
2022/09/22 12:17:46;;;;;;;7.33;4.83;;;13.70;99.90;;;;;;4962332;28;20235;-95
2022/09/22 12:20:31;;;;;;;6.20;4.40;;;13.70;99.90;;;;;;4960660;28;20240;-96
2022/09/22 12:23:28;;;;;;;7.37;4.63;;;13.70;99.90;;;;;;4959233;28;20664;-94
2022/09/22 12:26:04;;;;;;;7.80;5.13;;;13.70;99.90;;;;;;4960210;28;20267;-94
2022/09/22 12:28:41;;;;;;;7.93;4.60;;;13.80;99.90;;;;;;4960484;28;20208;-95
2022/09/22 12:31:16;;;;;;;7.07;4.20;;;13.80;99.90;;;;;;4960110;28;20766;-96
2022/09/22 12:33:49;;;;;;;10.17;4.97;;;13.80;99.90;;;;;;4959068;28;20216;-95
2022/09/22 12:36:29;;;;;;;6.97;4.70;;;13.80;99.90;;;;;;4958987;28;20208;-96
2022/09/22 12:39:16;;;;;;;7.10;4.90;;;13.80;99.90;;;;;;4960181;28;20215;-96
2022/09/22 12:41:49;;;;;;;7.67;4.90;;;13.80;99.90;;;;;;4959290;29;20243;-95
2022/09/22 12:44:25;;;;;;;6.33;4.63;;;13.80;99.90;;;;;;4960891;28;20219;-96
2022/09/22 12:47:03;;;;;;;5.37;4.83;;;13.80;99.90;;;;;;4958743;28;20211;-95
2022/09/22 12:49:35;;;;;;;6.03;4.70;;;13.80;99.90;;;;;;4961107;28;20560;-95
2022/09/22 12:52:38;;;;;;;8.23;4.43;;;13.80;99.90;;;;;;4960066;28;20586;-96
2022/09/22 12:55:20;;;;;;;6.57;4.53;;;13.80;99.90;;;;;;4980897;28;20246;-96
2022/09/22 12:57:53;;;;;;;9.67;4.63;;;13.90;99.90;;;;;;4979224;28;20215;-96
2022/09/22 13:00:36;;;;;;;6.00;4.90;;;13.90;99.90;;;;;;4979218;28;20211;-96
2022/09/22 13:03:41;;;;;;;7.77;4.93;;;13.90;99.90;;;;;;4982469;28;20206;-96
2022/09/22 13:06:45;;;;;;;7.83;5.07;;;13.90;99.90;;;;;;4982101;28;20210;-96
2022/09/22 13:09:24;;;;;;;7.73;4.90;;;13.80;99.90;;;;;;4982762;28;20217;-93
2022/09/22 13:12:24;;;;;;;7.27;5.23;;;13.80;99.90;;;;;;4978194;28;20287;-95
2022/09/22 13:15:02;;;;;;;7.17;5.17;;;13.90;99.90;;;;;;4981296;28;20217;-96
2022/09/22 13:17:46;;;;;;;8.43;4.77;;;13.90;99.90;;;;;;4979128;28;20206;-96
2022/09/22 13:20:31;;;;;;;7.57;5.30;;;13.80;99.90;;;;;;4983009;28;20223;-95
2022/09/22 13:23:06;;;;;;;8.20;5.13;;;13.80;99.90;;;;;;4982999;28;20246;-95
2022/09/22 13:25:38;;;;;;;10.07;5.50;;;13.80;99.90;;;;;;4982673;28;20221;-96
2022/09/22 13:28:17;;;;;;;10.37;5.00;;;13.80;99.90;;;;;;4981555;28;20222;-96
2022/09/22 13:30:59;;;;;;;6.07;5.03;;;13.80;99.90;;;;;;4982569;28;20223;-96
2022/09/22 13:33:38;;;;;;;6.73;4.90;;;13.80;99.90;;;;;;4978207;28;20211;-96
2022/09/22 13:36:13;;;;;;;8.73;5.20;;;13.80;99.90;;;;;;4980649;28;20202;-95
2022/09/22 13:38:45;;;;;;;6.83;5.27;;;13.80;99.90;;;;;;4980822;28;20213;-96
2022/09/22 13:41:22;;;;;;;9.50;5.30;;;13.80;99.90;;;;;;4983509;28;20237;-95
2022/09/22 13:43:57;;;;;;;7.77;5.00;;;13.80;99.90;;;;;;4996108;28;20212;-96
2022/09/22 13:46:36;;;;;;;7.53;5.00;;;13.80;99.90;;;;;;4986633;28;20204;-96
2022/09/22 13:49:13;;;;;;;7.57;4.70;;;13.80;99.90;;;;;;4983104;28;20203;-96
2022/09/22 13:51:49;;;;;;;9.47;5.87;;;13.80;99.90;;;;;;4967960;28;20287;-96
2022/09/22 13:54:24;;;;;;;6.33;5.07;;;13.80;99.90;;;;;;4967203;28;20246;-96
2022/09/22 13:56:56;;;;;;;6.40;4.63;;;13.80;99.90;;;;;;4966062;28;20207;-96
2022/09/22 13:59:35;;;;;;;8.40;5.43;;;13.80;99.90;;;;;;4961886;28;20199;-96
2022/09/22 14:02:09;;;;;;;8.07;4.90;;;13.80;99.90;;;;;;4962499;28;20238;-96
2022/09/22 14:04:51;;;;;;;7.60;5.10;;;13.80;99.90;;;;;;4969990;28;20239;-96